createdAt,value
2024-03-14T00:03:56.493Z,6.93
2024-03-14T00:08:02.049Z,7.67
2024-03-14T00:12:04.218Z,5.77
2024-03-14T00:16:07.360Z,8.97
2024-03-14T00:20:13.256Z,11.27
2024-03-14T00:24:15.923Z,9.03
2024-03-14T00:28:19.512Z,9.57
2024-03-14T00:32:21.745Z,9.60
2024-03-14T00:36:23.785Z,8.53
2024-03-14T00:40:26.028Z,11.77
2024-03-14T00:44:28.298Z,8.97
2024-03-14T00:48:30.250Z,9.63
2024-03-14T00:52:32.633Z,22.03
2024-03-14T00:56:34.578Z,17.60
2024-03-14T01:00:36.734Z,16.90
2024-03-14T01:04:39.549Z,8.30
2024-03-14T01:08:42.141Z,7.27
2024-03-14T01:12:44.372Z,12.90
2024-03-14T01:16:46.329Z,6.23
2024-03-14T01:20:50.041Z,5.83
2024-03-14T01:24:52.241Z,5.93
2024-03-14T01:28:54.187Z,11.73
2024-03-14T01:32:56.509Z,29.33
2024-03-14T01:37:26.480Z,10.57
2024-03-14T01:41:28.453Z,9.97
2024-03-14T01:45:31.645Z,7.57
2024-03-14T01:49:34.307Z,12.60
2024-03-14T01:53:37.424Z,11.67
2024-03-14T01:57:40.489Z,11.47
2024-03-14T02:01:42.547Z,12.73
2024-03-14T02:05:53.750Z,15.67
2024-03-14T02:09:55.668Z,14.67
2024-03-14T02:13:58.367Z,14.00
2024-03-14T02:18:00.491Z,13.50
2024-03-14T02:22:03.243Z,14.57
2024-03-14T02:26:07.936Z,13.07
2024-03-14T02:30:10.375Z,20.70
2024-03-14T02:34:12.489Z,18.90
2024-03-14T02:38:15.519Z,25.20
2024-03-14T02:42:17.418Z,12.87
2024-03-14T02:46:19.456Z,13.67
2024-03-14T02:50:21.428Z,15.60
2024-03-14T02:54:23.363Z,11.77
2024-03-14T02:58:25.722Z,17.17
2024-03-14T03:02:27.872Z,13.47
2024-03-14T03:06:30.056Z,12.20
2024-03-14T03:10:32.073Z,19.58
2024-03-14T03:14:33.990Z,14.67
2024-03-14T03:18:35.982Z,16.10
2024-03-14T03:22:59.573Z,13.27
2024-03-14T03:27:14.695Z,16.73
2024-03-14T03:31:16.852Z,13.57
2024-03-14T03:35:24.257Z,12.90
2024-03-14T03:39:28.546Z,11.30
2024-03-14T03:43:30.707Z,12.97
2024-03-14T03:47:32.688Z,11.17
2024-03-14T03:51:34.757Z,13.37
2024-03-14T03:55:36.689Z,11.50
2024-03-14T03:59:38.869Z,16.60
2024-03-14T04:03:41.856Z,16.20
2024-03-14T04:07:45.214Z,8.83
2024-03-14T04:11:47.185Z,9.23
2024-03-14T04:15:49.233Z,7.77
2024-03-14T04:19:51.847Z,8.20
2024-03-14T04:23:54.526Z,9.13
2024-03-14T04:27:58.045Z,7.60
2024-03-14T04:31:59.994Z,7.80
2024-03-14T04:36:04.630Z,8.63
2024-03-14T04:40:14.041Z,8.53
2024-03-14T04:44:16.008Z,14.50
2024-03-14T04:48:18.030Z,15.30
2024-03-14T04:52:20.549Z,12.40
2024-03-14T04:56:22.946Z,9.83
2024-03-14T05:00:27.055Z,12.47
2024-03-14T05:04:29.370Z,12.87
2024-03-14T05:08:31.403Z,10.23
2024-03-14T05:12:33.407Z,8.33
2024-03-14T05:16:35.458Z,9.00
2024-03-14T05:20:37.948Z,8.10
2024-03-14T05:24:40.023Z,8.33
2024-03-14T05:28:42.885Z,7.83
2024-03-14T05:32:49.045Z,7.87
2024-03-14T05:36:51.261Z,7.00
2024-03-14T05:40:53.787Z,7.57
2024-03-14T05:44:57.275Z,6.97
2024-03-14T05:48:59.698Z,7.43
2024-03-14T05:53:01.791Z,7.07
2024-03-14T05:57:04.523Z,6.50
2024-03-14T06:01:08.393Z,6.97
2024-03-14T06:05:11.110Z,6.43
2024-03-14T06:09:16.308Z,6.30
2024-03-14T06:13:18.899Z,5.93
2024-03-14T06:17:20.814Z,5.50
2024-03-14T06:21:23.282Z,7.00
2024-03-14T06:25:25.390Z,15.30
2024-03-14T06:29:27.513Z,21.80
2024-03-14T06:33:29.661Z,12.90
2024-03-14T06:37:31.927Z,15.90
2024-03-14T06:41:34.308Z,11.67
2024-03-14T06:45:36.469Z,10.43
2024-03-14T06:49:39.310Z,11.87
2024-03-14T06:53:41.178Z,11.90
2024-03-14T06:57:46.718Z,12.90
2024-03-14T07:01:49.899Z,12.17
2024-03-14T07:05:59.140Z,12.87
2024-03-14T07:10:01.193Z,13.50
2024-03-14T07:14:03.347Z,13.90
2024-03-14T07:18:06.596Z,14.80
2024-03-14T07:22:10.945Z,15.93
2024-03-14T07:26:14.601Z,17.07
2024-03-14T07:30:17.079Z,21.47
2024-03-14T07:34:19.786Z,24.40
2024-03-14T07:38:28.940Z,20.53
2024-03-14T07:42:32.309Z,24.87
2024-03-14T07:46:35.351Z,34.40
2024-03-14T07:50:37.630Z,40.77
2024-03-14T07:54:41.116Z,36.47
2024-03-14T07:58:47.776Z,27.93
2024-03-14T08:02:56.767Z,35.83
2024-03-14T08:07:00.782Z,27.23
2024-03-14T08:11:04.521Z,32.80
2024-03-14T08:15:17.723Z,28.00
2024-03-14T08:19:20.230Z,31.30
2024-03-14T08:23:22.582Z,30.52
2024-03-14T08:27:26.092Z,32.13
2024-03-14T08:31:29.025Z,29.50
2024-03-14T08:35:31.612Z,35.00
2024-03-14T08:39:33.616Z,29.77
2024-03-14T08:43:36.446Z,29.10
2024-03-14T08:47:38.720Z,29.25
2024-03-14T08:51:40.673Z,29.05
2024-03-14T08:55:58.164Z,27.53
2024-03-14T09:00:00.201Z,25.37
2024-03-14T09:04:02.354Z,25.48
2024-03-14T09:08:05.366Z,27.33
2024-03-14T09:12:17.825Z,38.10
2024-03-14T09:16:20.816Z,38.10
2024-03-14T09:20:22.885Z,39.72
2024-03-14T09:24:24.864Z,42.77
2024-03-14T09:28:28.030Z,43.20
2024-03-14T09:32:31.456Z,46.83
2024-03-14T09:36:33.590Z,43.08
2024-03-14T09:40:35.465Z,38.87
2024-03-14T09:44:37.500Z,39.28
2024-03-14T09:48:39.828Z,37.72
2024-03-14T09:52:41.767Z,41.37
2024-03-14T09:56:44.704Z,38.60
2024-03-14T10:00:46.929Z,39.13
2024-03-14T10:04:50.831Z,29.88
2024-03-14T10:08:53.027Z,33.67
2024-03-14T10:12:55.918Z,30.83
2024-03-14T10:16:59.405Z,28.03
2024-03-14T10:21:07.341Z,33.70
2024-03-14T10:25:25.277Z,30.27
2024-03-14T10:29:34.164Z,26.10
2024-03-14T10:33:38.945Z,22.98
2024-03-14T10:37:42.886Z,23.20
2024-03-14T10:41:48.922Z,23.58
2024-03-14T10:45:54.270Z,21.85
2024-03-14T10:49:57.583Z,22.55
2024-03-14T10:54:00.848Z,18.58
2024-03-14T10:58:06.798Z,16.15
2024-03-14T11:02:15.190Z,16.27
2024-03-14T11:06:21.790Z,18.73
2024-03-14T11:10:33.214Z,17.48
2024-03-14T11:14:40.035Z,18.60
2024-03-14T11:18:54.784Z,17.25
2024-03-14T11:22:58.148Z,13.35
2024-03-14T11:27:02.933Z,12.95
2024-03-14T11:31:05.067Z,13.35
2024-03-14T11:35:29.769Z,11.98
2024-03-14T11:39:37.464Z,12.13
2024-03-14T11:43:40.246Z,10.60
2024-03-14T11:47:43.487Z,9.80
2024-03-14T11:51:49.385Z,10.70
2024-03-14T11:55:58.725Z,9.05
2024-03-14T12:00:10.858Z,11.27
2024-03-14T12:04:14.706Z,9.75
2024-03-14T12:08:17.065Z,10.18
2024-03-14T12:12:20.825Z,8.45
2024-03-14T12:16:23.559Z,7.78
2024-03-14T12:20:27.189Z,6.55
2024-03-14T12:24:29.607Z,6.47
2024-03-14T12:28:33.788Z,7.13
2024-03-14T12:32:35.974Z,6.30
2024-03-14T12:36:38.056Z,6.65
2024-03-14T12:40:41.004Z,6.32
2024-03-14T12:44:44.139Z,8.32
2024-03-14T12:48:47.608Z,6.07
2024-03-14T12:53:05.406Z,5.72
2024-03-14T12:57:11.663Z,5.60
2024-03-14T13:01:14.024Z,6.15
2024-03-14T13:05:16.717Z,5.45
2024-03-14T13:09:23.234Z,5.45
2024-03-14T13:13:25.582Z,6.30
2024-03-14T13:17:28.789Z,8.30
2024-03-14T13:21:46.738Z,4.93
2024-03-14T13:25:49.358Z,4.75
2024-03-14T13:29:51.373Z,4.93
2024-03-14T13:33:53.619Z,5.10
2024-03-14T13:37:58.521Z,4.57
2024-03-14T13:42:01.214Z,4.57
2024-03-14T13:46:03.289Z,4.55
2024-03-14T13:50:10.826Z,5.53
2024-03-14T13:54:19.157Z,6.50
2024-03-14T13:58:24.395Z,4.75
2024-03-14T14:02:26.361Z,4.72
2024-03-14T14:06:29.000Z,5.60
2024-03-14T14:10:30.957Z,4.53
2024-03-14T14:14:33.833Z,4.82
2024-03-14T14:18:36.012Z,4.53
2024-03-14T14:22:38.085Z,4.65
2024-03-14T14:27:00.420Z,4.82
2024-03-14T14:31:09.290Z,4.70
2024-03-14T14:35:14.154Z,6.18
2024-03-14T14:39:19.886Z,5.47
2024-03-14T14:43:22.417Z,4.43
2024-03-14T14:47:25.196Z,4.53
2024-03-14T14:51:27.465Z,4.45
2024-03-14T14:55:30.147Z,3.60
2024-03-14T14:59:33.120Z,5.07
2024-03-14T15:03:35.309Z,3.30
2024-03-14T15:07:39.692Z,3.35
2024-03-14T15:11:42.348Z,3.15
2024-03-14T15:15:49.624Z,3.47
2024-03-14T15:19:54.763Z,4.22
2024-03-14T15:23:57.906Z,6.35
2024-03-14T15:27:59.897Z,3.92
2024-03-14T15:32:05.305Z,3.47
2024-03-14T15:36:07.800Z,3.45
2024-03-14T15:40:15.362Z,4.53
2024-03-14T15:44:18.054Z,4.20
2024-03-14T15:48:22.533Z,3.38
2024-03-14T15:52:27.714Z,4.22
2024-03-14T15:56:30.042Z,5.68
2024-03-14T16:00:32.449Z,6.50
2024-03-14T16:04:34.487Z,6.38
2024-03-14T16:08:48.775Z,3.95
2024-03-14T16:12:57.291Z,3.83
2024-03-14T16:17:00.005Z,8.27
2024-03-14T16:21:02.404Z,3.50
2024-03-14T16:25:05.913Z,8.43
2024-03-14T16:29:10.745Z,9.38
2024-03-14T16:33:13.618Z,6.75
2024-03-14T16:37:16.106Z,7.75
2024-03-14T16:41:20.707Z,5.03
2024-03-14T16:45:23.958Z,3.38
2024-03-14T16:49:26.128Z,9.20
2024-03-14T16:53:29.650Z,5.20
2024-03-14T16:57:32.231Z,3.58
2024-03-14T17:01:36.943Z,4.82
2024-03-14T17:05:40.090Z,7.90
2024-03-14T17:09:43.578Z,6.47
2024-03-14T17:13:45.863Z,8.18
2024-03-14T17:17:48.220Z,5.82
2024-03-14T17:21:51.251Z,4.07
2024-03-14T17:25:53.314Z,10.23
2024-03-14T17:29:56.310Z,7.43
2024-03-14T17:33:58.852Z,13.32
2024-03-14T17:38:00.927Z,10.55
2024-03-14T17:42:03.213Z,5.38
2024-03-14T17:46:08.077Z,7.15
2024-03-14T17:50:12.405Z,11.63
2024-03-14T17:54:14.755Z,6.78
2024-03-14T17:58:16.963Z,9.70
2024-03-14T18:02:19.157Z,41.88
2024-03-14T18:06:21.482Z,33.72
2024-03-14T18:10:24.504Z,26.90
2024-03-14T18:14:26.860Z,47.58
2024-03-14T18:18:30.916Z,12.88
2024-03-14T18:22:33.404Z,13.48
2024-03-14T18:26:36.314Z,15.17
2024-03-14T18:30:38.518Z,3.83
2024-03-14T18:34:41.977Z,8.90
2024-03-14T18:38:44.102Z,31.27
2024-03-14T18:42:46.241Z,43.47
2024-03-14T18:46:48.655Z,29.07
2024-03-14T18:50:50.954Z,16.37
2024-03-14T18:54:52.976Z,7.03
2024-03-14T18:58:55.317Z,7.38
2024-03-14T19:03:01.631Z,7.07
2024-03-14T19:07:05.480Z,16.25
2024-03-14T19:11:07.607Z,13.53
2024-03-14T19:15:12.749Z,16.03
2024-03-14T19:19:15.315Z,8.80
2024-03-14T19:23:18.828Z,4.07
2024-03-14T19:27:21.339Z,6.07
2024-03-14T19:31:23.742Z,2.93
2024-03-14T19:35:26.560Z,6.00
2024-03-14T19:39:30.549Z,4.80
2024-03-14T19:43:32.729Z,7.83
2024-03-14T19:47:35.724Z,6.83
2024-03-14T19:51:38.135Z,7.13
2024-03-14T19:55:40.244Z,6.50
2024-03-14T19:59:43.017Z,9.02
2024-03-14T20:03:47.497Z,7.93
2024-03-14T20:07:50.430Z,10.45
2024-03-14T20:11:55.148Z,5.80
2024-03-14T20:15:59.438Z,3.23
2024-03-14T20:20:11.952Z,5.47
2024-03-14T20:24:14.704Z,4.47
2024-03-14T20:28:17.034Z,4.30
2024-03-14T20:32:22.330Z,3.57
2024-03-14T20:36:24.830Z,3.30
2024-03-14T20:40:35.320Z,2.83
2024-03-14T20:44:38.223Z,3.67
2024-03-14T20:48:40.438Z,5.13
2024-03-14T20:52:43.762Z,4.57
2024-03-14T20:56:51.803Z,6.20
2024-03-14T21:00:53.935Z,8.80
2024-03-14T21:04:57.091Z,4.97
2024-03-14T21:09:00.037Z,5.83
2024-03-14T21:13:05.482Z,6.17
2024-03-14T21:17:10.168Z,13.90
2024-03-14T21:21:12.245Z,7.87
2024-03-14T21:25:14.505Z,14.67
2024-03-14T21:29:16.826Z,12.37
2024-03-14T21:33:19.577Z,3.90
2024-03-14T21:37:22.289Z,4.00
2024-03-14T21:41:26.949Z,6.93
2024-03-14T21:45:29.891Z,10.07
2024-03-14T21:49:32.324Z,4.40
2024-03-14T21:53:34.190Z,3.03
2024-03-14T21:57:37.184Z,5.73
2024-03-14T22:01:42.588Z,7.23
2024-03-14T22:05:44.720Z,5.67
2024-03-14T22:09:47.158Z,6.63
2024-03-14T22:13:49.397Z,4.00
2024-03-14T22:17:51.873Z,5.47
2024-03-14T22:21:54.013Z,9.67
2024-03-14T22:25:56.150Z,4.27
2024-03-14T22:29:58.351Z,8.43
2024-03-14T22:34:00.423Z,4.27
2024-03-14T22:38:02.913Z,4.37
2024-03-14T22:42:06.211Z,4.80
2024-03-14T22:46:09.863Z,4.77
2024-03-14T22:50:12.643Z,6.70
2024-03-14T22:54:14.626Z,5.23
2024-03-14T22:58:17.414Z,5.47
2024-03-14T23:02:21.776Z,6.13
2024-03-14T23:06:25.034Z,5.67
2024-03-14T23:10:27.611Z,3.80
2024-03-14T23:14:30.864Z,2.57
2024-03-14T23:18:33.098Z,3.30
2024-03-14T23:22:35.551Z,4.97
2024-03-14T23:26:38.684Z,3.20
2024-03-14T23:30:41.837Z,2.30
2024-03-14T23:34:44.641Z,5.17
2024-03-14T23:38:46.473Z,3.07
2024-03-14T23:42:48.624Z,4.97
2024-03-14T23:46:50.708Z,3.27
2024-03-14T23:50:55.053Z,2.97
2024-03-14T23:54:59.118Z,2.30
2024-03-14T23:59:01.652Z,3.37
